KLM3RK EDDH-EHAM
Flight info
| Callsign | KLM3RK |
|---|---|
| Flight time | N/A |
| Altitude | 26000 |
| Route | WSN5G/33 WSN DCT ITMIZ DCT BLUFA |
| Aircraft | A21N/M-SDE2E3FGHIRWXY/LB1 |
Departure
| Time | 2026-05-04 17:40 |
|---|---|
| Airport | Hamburg Helmut Schmidt Airport (EDDH) |
Arrival
| Time | N/A |
|---|---|
| Airport | Amsterdam Airport Schiphol (EHAM) |
| Time | Latitude | Longitude | Altitude | Speed | Heading |
|---|---|---|---|---|---|
| 2026-05-04 17:20 | 53.63168 | 10.00361 | 54 ft | 0 kts | 86° |
| 2026-05-04 17:29 | 53.63168 | 10.00360 | 54 ft | 0 kts | 86° |
| 2026-05-04 17:29 | 53.63164 | 10.00275 | 53 ft | 0 kts | 86° |
| 2026-05-04 17:30 | 53.63165 | 10.00188 | 51 ft | 0 kts | 142° |
| 2026-05-04 17:31 | 53.63197 | 10.00177 | 51 ft | 0 kts | 178° |
| 2026-05-04 17:31 | 53.63198 | 10.00177 | 51 ft | 0 kts | 178° |
| 2026-05-04 17:35 | 53.63167 | 10.00182 | 52 ft | 4 kts | 174° |
| 2026-05-04 17:35 | 53.63130 | 10.00188 | 51 ft | 6 kts | 174° |
| 2026-05-04 17:36 | 53.63079 | 10.00188 | 54 ft | 8 kts | 195° |
| 2026-05-04 17:36 | 53.63023 | 10.00135 | 54 ft | 10 kts | 212° |
| 2026-05-04 17:36 | 53.62959 | 10.00064 | 53 ft | 12 kts | 215° |
| 2026-05-04 17:36 | 53.62903 | 9.99939 | 51 ft | 14 kts | 244° |
| 2026-05-04 17:37 | 53.62870 | 9.99781 | 50 ft | 15 kts | 282° |
| 2026-05-04 17:37 | 53.62955 | 9.99669 | 50 ft | 17 kts | 335° |
| 2026-05-04 17:37 | 53.62965 | 9.99661 | 50 ft | 0 kts | 331° |
| 2026-05-04 17:39 | 53.63483 | 9.99206 | 52 ft | 100 kts | 332° |
| 2026-05-04 17:39 | 53.64207 | 9.98614 | 57 ft | 145 kts | 334° |
| 2026-05-04 17:39 | 53.65142 | 9.97745 | 231 ft | 161 kts | 331° |
| 2026-05-04 17:40 | 53.66039 | 9.97007 | 745 ft | 158 kts | 332° |
| 2026-05-04 17:40 | 53.67048 | 9.96144 | 1049 ft | 167 kts | 332° |
| 2026-05-04 17:40 | 53.68077 | 9.95265 | 1459 ft | 171 kts | 332° |
| 2026-05-04 17:40 | 53.69168 | 9.94330 | 1970 ft | 173 kts | 331° |
| 2026-05-04 17:41 | 53.70225 | 9.93398 | 2458 ft | 175 kts | 328° |
| 2026-05-04 17:41 | 53.71137 | 9.92047 | 3011 ft | 173 kts | 300° |
| 2026-05-04 17:41 | 53.71496 | 9.90105 | 3500 ft | 181 kts | 271° |
| 2026-05-04 17:41 | 53.71242 | 9.87963 | 3936 ft | 194 kts | 251° |
| 2026-05-04 17:42 | 53.70775 | 9.85780 | 4348 ft | 208 kts | 252° |
| 2026-05-04 17:42 | 53.70218 | 9.83049 | 4719 ft | 226 kts | 252° |
| 2026-05-04 17:42 | 53.69765 | 9.80802 | 4966 ft | 241 kts | 252° |
| 2026-05-04 17:42 | 53.69211 | 9.78022 | 5042 ft | 254 kts | 252° |
| 2026-05-04 17:43 | 53.68632 | 9.75118 | 5038 ft | 254 kts | 252° |
| 2026-05-04 17:43 | 53.68068 | 9.72263 | 5042 ft | 254 kts | 252° |
| 2026-05-04 17:43 | 53.67514 | 9.69445 | 5026 ft | 254 kts | 252° |
| 2026-05-04 17:43 | 53.66958 | 9.66615 | 5241 ft | 256 kts | 252° |
| 2026-05-04 17:44 | 53.66397 | 9.63758 | 5718 ft | 256 kts | 252° |
| 2026-05-04 17:44 | 53.65834 | 9.60904 | 6207 ft | 257 kts | 252° |
| 2026-05-04 17:44 | 53.65217 | 9.58083 | 6667 ft | 258 kts | 245° |
| 2026-05-04 17:44 | 53.64260 | 9.55509 | 7110 ft | 260 kts | 236° |
| 2026-05-04 17:45 | 53.63192 | 9.53043 | 7558 ft | 262 kts | 235° |
| 2026-05-04 17:45 | 53.62125 | 9.50590 | 8017 ft | 264 kts | 235° |
| 2026-05-04 17:45 | 53.61039 | 9.48084 | 8440 ft | 267 kts | 235° |
| 2026-05-04 17:45 | 53.59927 | 9.45509 | 8885 ft | 270 kts | 235° |
| 2026-05-04 17:46 | 53.58822 | 9.42945 | 9339 ft | 272 kts | 234° |
| 2026-05-04 17:46 | 53.57730 | 9.40419 | 9794 ft | 273 kts | 235° |
| 2026-05-04 17:46 | 53.56590 | 9.37778 | 10151 ft | 278 kts | 235° |
| 2026-05-04 17:46 | 53.55453 | 9.35142 | 10327 ft | 288 kts | 235° |
| 2026-05-04 17:47 | 53.54231 | 9.32311 | 10548 ft | 309 kts | 235° |
| 2026-05-04 17:47 | 53.52926 | 9.29285 | 10793 ft | 331 kts | 235° |
| 2026-05-04 17:47 | 53.51537 | 9.26067 | 11185 ft | 346 kts | 234° |
| 2026-05-04 17:47 | 53.50112 | 9.22778 | 11797 ft | 352 kts | 235° |
| 2026-05-04 17:48 | 53.48885 | 9.19207 | 12475 ft | 354 kts | 248° |
| 2026-05-04 17:48 | 53.48027 | 9.15309 | 13177 ft | 358 kts | 251° |
| 2026-05-04 17:48 | 53.47210 | 9.11347 | 13861 ft | 361 kts | 251° |
| 2026-05-04 17:48 | 53.46374 | 9.07350 | 14466 ft | 364 kts | 251° |
| 2026-05-04 17:49 | 53.45524 | 9.03337 | 15072 ft | 367 kts | 251° |
| 2026-05-04 17:49 | 53.44663 | 8.99299 | 15667 ft | 369 kts | 251° |
| 2026-05-04 17:49 | 53.43791 | 8.95241 | 16260 ft | 371 kts | 251° |
| 2026-05-04 17:49 | 53.42911 | 8.91163 | 16819 ft | 373 kts | 250° |
| 2026-05-04 17:50 | 53.42022 | 8.87060 | 17380 ft | 375 kts | 250° |
| 2026-05-04 17:50 | 53.41127 | 8.82933 | 17889 ft | 379 kts | 250° |
| 2026-05-04 17:50 | 53.40222 | 8.78764 | 18362 ft | 382 kts | 250° |
| 2026-05-04 17:50 | 53.39306 | 8.74562 | 18809 ft | 385 kts | 250° |
| 2026-05-04 17:51 | 53.38380 | 8.70319 | 19256 ft | 387 kts | 250° |
| 2026-05-04 17:51 | 53.37454 | 8.66087 | 19724 ft | 389 kts | 250° |
| 2026-05-04 17:51 | 53.36521 | 8.61828 | 20165 ft | 391 kts | 250° |
| 2026-05-04 17:51 | 53.35581 | 8.57545 | 20596 ft | 393 kts | 250° |
| 2026-05-04 17:52 | 53.34635 | 8.53233 | 21014 ft | 395 kts | 250° |
| 2026-05-04 17:52 | 53.33745 | 8.49192 | 21396 ft | 397 kts | 250° |
| 2026-05-04 17:52 | 53.32789 | 8.44857 | 21791 ft | 399 kts | 250° |
| 2026-05-04 17:52 | 53.31822 | 8.40500 | 22169 ft | 400 kts | 249° |
| 2026-05-04 17:53 | 53.30851 | 8.36123 | 22516 ft | 402 kts | 249° |
| 2026-05-04 17:53 | 53.29886 | 8.31772 | 22847 ft | 404 kts | 249° |
| 2026-05-04 17:53 | 53.28904 | 8.27359 | 23184 ft | 406 kts | 249° |
| 2026-05-04 17:53 | 53.27920 | 8.22939 | 23564 ft | 408 kts | 249° |
| 2026-05-04 17:54 | 53.26923 | 8.18492 | 24012 ft | 408 kts | 250° |
| 2026-05-04 17:54 | 53.25930 | 8.14057 | 24459 ft | 408 kts | 250° |
| 2026-05-04 17:54 | 53.24934 | 8.09617 | 24864 ft | 409 kts | 249° |
| 2026-05-04 17:54 | 53.23935 | 8.05174 | 25256 ft | 410 kts | 249° |
| 2026-05-04 17:55 | 53.22931 | 8.00714 | 25626 ft | 411 kts | 249° |
| 2026-05-04 17:55 | 53.21918 | 7.96241 | 25935 ft | 412 kts | 249° |
| 2026-05-04 17:55 | 53.20897 | 7.91740 | 26023 ft | 418 kts | 249° |
| 2026-05-04 17:55 | 53.19866 | 7.87197 | 26028 ft | 419 kts | 249° |
| 2026-05-04 17:56 | 53.18831 | 7.82645 | 26012 ft | 419 kts | 249° |
| 2026-05-04 17:56 | 53.17805 | 7.78138 | 26000 ft | 419 kts | 249° |
| 2026-05-04 17:56 | 53.16768 | 7.73607 | 25996 ft | 419 kts | 249° |
| 2026-05-04 17:56 | 53.15729 | 7.69060 | 25993 ft | 419 kts | 249° |
| 2026-05-04 17:57 | 53.14689 | 7.64519 | 26008 ft | 418 kts | 249° |
| 2026-05-04 17:57 | 53.13648 | 7.59994 | 26006 ft | 418 kts | 249° |
| 2026-05-04 17:57 | 53.12606 | 7.55480 | 26007 ft | 418 kts | 248° |
| 2026-05-04 17:57 | 53.11562 | 7.50974 | 26005 ft | 418 kts | 248° |
| 2026-05-04 17:58 | 53.10561 | 7.46657 | 25999 ft | 418 kts | 248° |